Time;durP1;ratioP1;P1;durP2;ratioP2;P2;SDS_P1;SDS_P2;PMS_P1;PMS_P2;Temp;Humidity;BMP_temperature;BMP_pressure;BME280_temperature;BME280_humidity;BME280_pressure;Samples;Min_cycle;Max_cycle;Signal;HPM_P1;HPM_P2
2021/08/08 00:01:15;;;;;;;;;;;18.70;70.60;;;;;;491573;240;991;-45
2021/08/08 00:03:16;;;;;;;;;;;18.70;70.60;;;;;;491527;240;1165;-45
2021/08/08 00:05:17;;;;;;;;;;;18.70;70.60;;;;;;491595;240;1075;-45
2021/08/08 00:07:19;;;;;;;;;;;18.70;70.60;;;;;;491992;240;1236;-45
2021/08/08 00:09:20;;;;;;;;;;;18.70;70.70;;;;;;492007;240;1309;-46
2021/08/08 00:11:21;;;;;;;;;;;18.70;70.70;;;;;;491854;240;1061;-46
2021/08/08 00:13:23;;;;;;;;;;;18.70;70.70;;;;;;491592;240;1114;-45
2021/08/08 00:15:24;;;;;;;;;;;18.70;70.70;;;;;;492013;240;1094;-46
2021/08/08 00:17:25;;;;;;;;;;;18.70;70.70;;;;;;491998;240;1098;-45
2021/08/08 00:19:27;;;;;;;;;;;18.70;70.70;;;;;;491566;240;2176;-45
2021/08/08 00:21:28;;;;;;;;;;;18.60;70.60;;;;;;491945;240;1190;-46
2021/08/08 00:23:29;;;;;;;;;;;18.70;70.70;;;;;;491835;240;1307;-45
2021/08/08 00:25:31;;;;;;;;;;;18.70;70.70;;;;;;491746;240;1203;-46
2021/08/08 00:27:33;;;;;;;;;;;18.70;70.60;;;;;;491915;240;1026;-46
2021/08/08 00:29:33;;;;;;;;;;;18.70;70.70;;;;;;491591;240;1437;-45
2021/08/08 00:31:34;;;;;;;;;;;18.70;70.70;;;;;;491903;240;1072;-45
2021/08/08 00:33:36;;;;;;;;;;;18.70;70.70;;;;;;491533;240;1114;-45
2021/08/08 00:35:41;;;;;;;;;;;18.70;70.50;;;;;;491539;240;1057;-46
2021/08/08 00:37:42;;;;;;;;;;;18.80;70.40;;;;;;491587;240;2231;-45
2021/08/08 00:39:40;;;;;;;;;;;19.10;69.20;;;;;;491559;240;2203;-46
2021/08/08 00:41:41;;;;;;;;;;;19.40;68.00;;;;;;491703;240;1338;-46
2021/08/08 00:43:42;;;;;;;;;;;19.60;67.10;;;;;;491933;240;1197;-46
2021/08/08 00:45:44;;;;;;;;;;;19.80;66.40;;;;;;491519;240;1135;-46
2021/08/08 00:47:45;;;;;;;;;;;20.00;66.00;;;;;;491530;240;1210;-46
2021/08/08 00:49:46;;;;;;;;;;;20.00;65.50;;;;;;491864;240;1121;-46
2021/08/08 00:51:48;;;;;;;;;;;20.10;65.30;;;;;;491864;240;1160;-46
2021/08/08 00:53:49;;;;;;;;;;;20.20;65.00;;;;;;492039;240;1050;-46
2021/08/08 00:55:50;;;;;;;;;;;20.30;64.80;;;;;;491739;240;1287;-46
2021/08/08 00:57:52;;;;;;;;;;;20.30;64.60;;;;;;491673;240;1532;-46
2021/08/08 00:59:53;;;;;;;;;;;20.40;64.40;;;;;;491626;240;2140;-46
2021/08/08 01:01:54;;;;;;;;;;;20.40;64.20;;;;;;491917;240;1179;-46
2021/08/08 01:03:56;;;;;;;;;;;20.50;64.10;;;;;;491904;240;1191;-46
2021/08/08 01:05:57;;;;;;;;;;;20.50;63.80;;;;;;491530;240;1092;-46
2021/08/08 01:07:58;;;;;;;;;;;20.60;63.70;;;;;;491882;240;1202;-46
2021/08/08 01:10:00;;;;;;;;;;;20.60;63.60;;;;;;491594;240;1206;-46
2021/08/08 01:12:01;;;;;;;;;;;20.70;63.60;;;;;;491923;240;1078;-46
2021/08/08 01:14:02;;;;;;;;;;;20.70;63.30;;;;;;491893;240;1197;-46
2021/08/08 01:16:04;;;;;;;;;;;20.70;63.30;;;;;;491509;240;1069;-46
2021/08/08 01:18:06;;;;;;;;;;;20.80;63.10;;;;;;491701;240;1180;-46
2021/08/08 01:20:07;;;;;;;;;;;20.80;63.10;;;;;;492057;240;2179;-46
2021/08/08 01:22:08;;;;;;;;;;;20.80;63.00;;;;;;491758;240;1253;-46
2021/08/08 01:24:10;;;;;;;;;;;20.90;63.00;;;;;;491627;240;1065;-46
2021/08/08 01:26:11;;;;;;;;;;;20.90;63.00;;;;;;491738;240;1283;-46
2021/08/08 01:28:13;;;;;;;;;;;20.90;63.00;;;;;;491789;240;1041;-46
2021/08/08 01:30:14;;;;;;;;;;;20.90;62.90;;;;;;491586;240;1082;-46
2021/08/08 01:32:15;;;;;;;;;;;20.90;62.80;;;;;;491552;240;1051;-46
2021/08/08 01:34:17;;;;;;;;;;;21.00;62.60;;;;;;491709;240;1068;-46
2021/08/08 01:36:18;;;;;;;;;;;21.00;62.60;;;;;;491561;240;1160;-46
2021/08/08 01:38:19;;;;;;;;;;;21.00;62.60;;;;;;491588;240;1067;-46
2021/08/08 01:40:21;;;;;;;;;;;21.00;62.60;;;;;;491854;240;2188;-46
2021/08/08 01:42:22;;;;;;;;;;;21.10;62.50;;;;;;492012;240;1187;-46
2021/08/08 01:44:23;;;;;;;;;;;21.10;62.30;;;;;;491579;240;1043;-45
2021/08/08 01:46:25;;;;;;;;;;;21.10;62.30;;;;;;492021;240;1176;-46
2021/08/08 01:48:26;;;;;;;;;;;21.10;62.20;;;;;;491821;240;1080;-46
2021/08/08 01:50:31;;;;;;;;;;;21.10;62.20;;;;;;491999;240;1050;-46
2021/08/08 01:52:29;;;;;;;;;;;21.20;62.20;;;;;;491663;240;2186;-46
2021/08/08 01:54:31;;;;;;;;;;;21.20;62.10;;;;;;491542;240;2488;-46
2021/08/08 01:56:33;;;;;;;;;;;21.20;62.00;;;;;;491741;240;1264;-46
2021/08/08 01:58:33;;;;;;;;;;;21.20;62.10;;;;;;491547;240;2394;-46
2021/08/08 02:00:35;;;;;;;;;;;21.20;61.90;;;;;;491626;240;2148;-46
2021/08/08 02:02:36;;;;;;;;;;;21.30;61.90;;;;;;491603;240;1044;-46
2021/08/08 02:04:39;;;;;;;;;;;21.30;62.00;;;;;;491931;240;1066;-46
2021/08/08 02:06:39;;;;;;;;;;;21.30;61.90;;;;;;491696;240;2349;-46
2021/08/08 02:08:40;;;;;;;;;;;21.30;61.90;;;;;;491908;240;1040;-46
2021/08/08 02:10:41;;;;;;;;;;;21.40;61.90;;;;;;491769;240;1205;-46
2021/08/08 02:12:43;;;;;;;;;;;21.40;61.90;;;;;;491796;240;1067;-45
2021/08/08 02:14:44;;;;;;;;;;;21.30;61.90;;;;;;491552;240;1058;-46
2021/08/08 02:16:45;;;;;;;;;;;21.40;61.80;;;;;;491643;240;1047;-46
2021/08/08 02:18:47;;;;;;;;;;;21.40;61.80;;;;;;491921;240;1043;-45
2021/08/08 02:20:48;;;;;;;;;;;21.40;61.80;;;;;;491855;240;2133;-46
2021/08/08 02:22:49;;;;;;;;;;;21.40;61.80;;;;;;491577;240;1083;-46
2021/08/08 02:24:50;;;;;;;;;;;21.40;61.70;;;;;;491567;240;1081;-46
2021/08/08 02:26:52;;;;;;;;;;;21.40;61.60;;;;;;491542;240;1242;-46
2021/08/08 02:28:53;;;;;;;;;;;21.50;61.60;;;;;;491775;240;1055;-46
2021/08/08 02:30:54;;;;;;;;;;;21.50;61.60;;;;;;491916;240;1070;-46
2021/08/08 02:32:56;;;;;;;;;;;21.50;61.60;;;;;;492037;240;1050;-46
2021/08/08 02:34:57;;;;;;;;;;;21.50;61.60;;;;;;492023;240;1075;-46
2021/08/08 02:36:59;;;;;;;;;;;21.50;61.60;;;;;;491983;240;1071;-46
2021/08/08 02:39:00;;;;;;;;;;;21.50;61.50;;;;;;491449;240;1272;-46
2021/08/08 02:41:01;;;;;;;;;;;21.50;61.50;;;;;;491760;240;2184;-46
2021/08/08 02:43:03;;;;;;;;;;;21.60;61.40;;;;;;491976;240;1099;-46
2021/08/08 02:45:04;;;;;;;;;;;21.60;61.40;;;;;;491559;240;1071;-46
2021/08/08 02:47:06;;;;;;;;;;;21.60;61.50;;;;;;491764;240;1076;-46
2021/08/08 02:49:07;;;;;;;;;;;21.60;61.60;;;;;;491565;240;1053;-46
2021/08/08 02:51:08;;;;;;;;;;;21.60;61.50;;;;;;491794;240;1040;-46
2021/08/08 02:53:10;;;;;;;;;;;21.60;61.50;;;;;;491496;240;1063;-46
2021/08/08 02:55:11;;;;;;;;;;;21.60;61.50;;;;;;492012;240;1128;-46
2021/08/08 02:57:12;;;;;;;;;;;21.60;61.50;;;;;;491735;240;1183;-46
2021/08/08 02:59:14;;;;;;;;;;;21.60;61.50;;;;;;492028;240;1048;-46
2021/08/08 03:01:15;;;;;;;;;;;21.60;61.50;;;;;;491999;240;2176;-46
2021/08/08 03:03:16;;;;;;;;;;;21.60;61.50;;;;;;491594;240;1386;-46
2021/08/08 03:05:18;;;;;;;;;;;21.60;61.50;;;;;;491499;240;1064;-46
2021/08/08 03:07:19;;;;;;;;;;;21.60;61.40;;;;;;491706;240;1182;-46
2021/08/08 03:09:20;;;;;;;;;;;21.70;61.50;;;;;;491619;240;1064;-46
2021/08/08 03:11:22;;;;;;;;;;;21.70;61.40;;;;;;491973;240;1189;-46
2021/08/08 03:13:23;;;;;;;;;;;21.70;61.40;;;;;;491567;240;1012;-46
2021/08/08 03:15:24;;;;;;;;;;;21.70;62.00;;;;;;491530;240;991;-46
2021/08/08 03:17:26;;;;;;;;;;;21.60;62.60;;;;;;491459;240;1165;-46
2021/08/08 03:19:27;;;;;;;;;;;21.50;62.70;;;;;;491798;240;1029;-46
2021/08/08 03:21:28;;;;;;;;;;;21.10;63.90;;;;;;491774;240;2192;-46
2021/08/08 03:23:30;;;;;;;;;;;20.70;65.30;;;;;;491584;240;1032;-46
2021/08/08 03:25:31;;;;;;;;;;;20.50;66.30;;;;;;491968;240;1085;-46
2021/08/08 03:27:32;;;;;;;;;;;20.30;67.00;;;;;;491514;240;1214;-46
2021/08/08 03:29:34;;;;;;;;;;;20.10;67.60;;;;;;491714;240;1066;-46
2021/08/08 03:31:35;;;;;;;;;;;20.00;68.00;;;;;;491643;240;1097;-46
2021/08/08 03:33:36;;;;;;;;;;;19.90;68.20;;;;;;491598;240;1069;-46
2021/08/08 03:35:38;;;;;;;;;;;19.90;68.50;;;;;;491889;240;1091;-46
2021/08/08 03:37:39;;;;;;;;;;;19.80;68.60;;;;;;491685;240;1089;-46
2021/08/08 03:39:40;;;;;;;;;;;19.80;68.70;;;;;;491590;240;1086;-46
2021/08/08 03:41:42;;;;;;;;;;;19.70;68.70;;;;;;491541;240;2196;-46
2021/08/08 03:43:43;;;;;;;;;;;19.70;68.80;;;;;;492041;240;1023;-45
2021/08/08 03:45:44;;;;;;;;;;;19.60;69.00;;;;;;491667;240;1066;-45
2021/08/08 03:47:46;;;;;;;;;;;19.60;69.10;;;;;;492015;240;1078;-45
2021/08/08 03:49:47;;;;;;;;;;;19.60;69.30;;;;;;491558;240;1082;-45
2021/08/08 03:51:48;;;;;;;;;;;19.60;69.10;;;;;;491911;240;1042;-46
2021/08/08 03:53:50;;;;;;;;;;;19.50;69.30;;;;;;491540;240;1129;-46
2021/08/08 03:55:51;;;;;;;;;;;19.50;69.40;;;;;;492001;240;1055;-46
2021/08/08 03:57:56;;;;;;;;;;;19.50;69.40;;;;;;491596;240;1216;-46
2021/08/08 03:59:55;;;;;;;;;;;19.50;69.30;;;;;;492037;240;2322;-45
2021/08/08 04:01:56;;;;;;;;;;;19.40;69.30;;;;;;491645;240;2188;-46
2021/08/08 04:03:58;;;;;;;;;;;19.40;69.50;;;;;;491891;240;1101;-46
2021/08/08 04:05:59;;;;;;;;;;;19.40;69.50;;;;;;491674;240;1053;-46
2021/08/08 04:08:00;;;;;;;;;;;19.40;69.60;;;;;;491598;240;1019;-46
2021/08/08 04:10:02;;;;;;;;;;;19.30;69.60;;;;;;491808;240;973;-46
2021/08/08 04:12:03;;;;;;;;;;;19.30;69.60;;;;;;491571;240;1253;-45
2021/08/08 04:14:04;;;;;;;;;;;19.30;69.70;;;;;;492059;240;1044;-45
2021/08/08 04:16:06;;;;;;;;;;;19.30;69.70;;;;;;491517;240;1151;-46
2021/08/08 04:18:07;;;;;;;;;;;19.30;69.80;;;;;;491939;240;1245;-45
2021/08/08 04:20:08;;;;;;;;;;;19.30;69.80;;;;;;491543;240;1064;-45
2021/08/08 04:22:10;;;;;;;;;;;19.30;69.70;;;;;;491579;240;2136;-46
2021/08/08 04:24:11;;;;;;;;;;;19.30;69.80;;;;;;491843;240;1050;-46
2021/08/08 04:26:12;;;;;;;;;;;19.30;69.80;;;;;;491944;240;1071;-46
2021/08/08 04:28:14;;;;;;;;;;;19.20;69.70;;;;;;491775;240;1166;-45
2021/08/08 04:30:15;;;;;;;;;;;19.20;69.70;;;;;;491680;240;1192;-46
2021/08/08 04:32:16;;;;;;;;;;;19.20;69.80;;;;;;491702;240;1206;-46
2021/08/08 04:34:18;;;;;;;;;;;19.20;69.70;;;;;;492022;240;1033;-46
2021/08/08 04:36:19;;;;;;;;;;;19.20;69.90;;;;;;491752;240;1123;-46
2021/08/08 04:38:20;;;;;;;;;;;19.10;69.90;;;;;;491603;240;1047;-45
2021/08/08 04:40:22;;;;;;;;;;;19.20;69.80;;;;;;491581;240;1447;-45
2021/08/08 04:42:23;;;;;;;;;;;19.20;69.90;;;;;;491523;240;2116;-46
2021/08/08 04:44:24;;;;;;;;;;;19.20;69.80;;;;;;492054;240;1349;-46
2021/08/08 04:46:26;;;;;;;;;;;19.10;69.90;;;;;;491517;240;1064;-45
2021/08/08 04:48:27;;;;;;;;;;;19.10;69.90;;;;;;491594;240;1084;-46
2021/08/08 04:50:28;;;;;;;;;;;19.10;69.90;;;;;;491774;240;1033;-46
2021/08/08 04:52:30;;;;;;;;;;;19.10;69.90;;;;;;491997;240;1034;-46
2021/08/08 04:54:31;;;;;;;;;;;19.10;69.90;;;;;;491508;240;1002;-46
2021/08/08 04:56:32;;;;;;;;;;;19.10;70.00;;;;;;491693;240;1154;-46
2021/08/08 04:58:34;;;;;;;;;;;19.10;70.00;;;;;;491784;240;1155;-46
2021/08/08 05:00:35;;;;;;;;;;;19.10;69.90;;;;;;492013;240;1071;-46
2021/08/08 05:02:37;;;;;;;;;;;19.10;70.00;;;;;;491548;240;2120;-45
2021/08/08 05:04:38;;;;;;;;;;;19.00;70.00;;;;;;491600;240;1043;-46
2021/08/08 05:06:39;;;;;;;;;;;19.00;70.10;;;;;;491870;240;1343;-46
2021/08/08 05:08:40;;;;;;;;;;;19.00;70.10;;;;;;492017;240;1097;-46
2021/08/08 05:10:42;;;;;;;;;;;19.00;70.00;;;;;;491936;240;1059;-45
2021/08/08 05:12:43;;;;;;;;;;;19.00;69.90;;;;;;491505;240;1088;-45
2021/08/08 05:14:45;;;;;;;;;;;19.00;69.80;;;;;;491577;240;1033;-45
2021/08/08 05:16:46;;;;;;;;;;;19.00;69.80;;;;;;491538;240;1309;-46
2021/08/08 05:18:47;;;;;;;;;;;19.00;70.00;;;;;;491990;240;1048;-45
2021/08/08 05:20:49;;;;;;;;;;;19.00;70.10;;;;;;491531;240;1065;-46
2021/08/08 05:22:50;;;;;;;;;;;19.00;70.10;;;;;;491568;240;2124;-45
2021/08/08 05:24:53;;;;;;;;;;;19.00;70.00;;;;;;491978;240;971;-46
2021/08/08 05:26:56;;;;;;;;;;;19.00;70.00;;;;;;491762;240;2079;-46
2021/08/08 05:28:55;;;;;;;;;;;19.00;70.10;;;;;;491614;240;1422;-46
2021/08/08 05:30:56;;;;;;;;;;;18.90;70.10;;;;;;491772;240;1055;-46
2021/08/08 05:32:57;;;;;;;;;;;19.00;70.10;;;;;;491747;240;1053;-46
2021/08/08 05:34:59;;;;;;;;;;;19.00;70.10;;;;;;491885;240;1059;-45
2021/08/08 05:37:00;;;;;;;;;;;18.90;70.20;;;;;;491789;240;1069;-45
2021/08/08 05:39:02;;;;;;;;;;;18.90;70.30;;;;;;491873;240;1188;-46
2021/08/08 05:41:03;;;;;;;;;;;18.90;70.20;;;;;;491525;240;2188;-46
2021/08/08 05:43:04;;;;;;;;;;;18.90;70.00;;;;;;491472;240;1078;-45
2021/08/08 05:45:05;;;;;;;;;;;18.90;70.00;;;;;;491567;240;1230;-46
2021/08/08 05:47:07;;;;;;;;;;;18.90;70.10;;;;;;491636;240;1028;-46
2021/08/08 05:49:09;;;;;;;;;;;18.90;70.20;;;;;;491563;240;1235;-46
2021/08/08 05:51:09;;;;;;;;;;;18.90;70.20;;;;;;491955;240;2651;-46
2021/08/08 05:53:11;;;;;;;;;;;18.90;70.20;;;;;;491548;240;1039;-46
2021/08/08 05:55:12;;;;;;;;;;;18.90;70.10;;;;;;492018;240;1099;-46
2021/08/08 05:57:13;;;;;;;;;;;18.90;70.10;;;;;;491690;240;1427;-46
2021/08/08 05:59:15;;;;;;;;;;;18.90;70.20;;;;;;491755;240;1184;-45
2021/08/08 06:01:16;;;;;;;;;;;18.90;70.20;;;;;;491617;240;2208;-46
2021/08/08 06:03:18;;;;;;;;;;;18.90;70.20;;;;;;491498;240;1346;-46
2021/08/08 06:05:19;;;;;;;;;;;18.90;70.10;;;;;;491615;240;2143;-45
2021/08/08 06:07:20;;;;;;;;;;;18.90;70.20;;;;;;491438;240;1045;-45
2021/08/08 06:09:21;;;;;;;;;;;18.90;70.30;;;;;;491524;240;1162;-45
2021/08/08 06:11:23;;;;;;;;;;;18.90;70.20;;;;;;491953;240;1040;-45
2021/08/08 06:13:24;;;;;;;;;;;18.90;70.30;;;;;;491586;240;1095;-46
2021/08/08 06:15:25;;;;;;;;;;;18.80;70.20;;;;;;491642;240;1195;-45
2021/08/08 06:17:27;;;;;;;;;;;18.80;70.30;;;;;;492029;240;1164;-46
2021/08/08 06:19:28;;;;;;;;;;;18.80;70.20;;;;;;491710;240;1086;-46
2021/08/08 06:21:30;;;;;;;;;;;18.90;70.30;;;;;;491712;240;2153;-46
2021/08/08 06:23:31;;;;;;;;;;;18.80;70.20;;;;;;491540;240;1113;-45
2021/08/08 06:25:32;;;;;;;;;;;18.80;70.30;;;;;;491724;240;1026;-45
2021/08/08 06:27:34;;;;;;;;;;;18.80;70.20;;;;;;491540;240;1205;-45
2021/08/08 06:29:36;;;;;;;;;;;18.80;70.20;;;;;;491588;240;1161;-46
2021/08/08 06:31:37;;;;;;;;;;;18.80;70.30;;;;;;491743;240;1789;-45
2021/08/08 06:33:38;;;;;;;;;;;18.80;70.30;;;;;;491632;240;1040;-46
2021/08/08 06:35:39;;;;;;;;;;;18.80;70.30;;;;;;492032;240;1042;-46
2021/08/08 06:37:43;;;;;;;;;;;18.80;70.30;;;;;;491984;240;1154;-46
2021/08/08 06:39:42;;;;;;;;;;;18.80;70.40;;;;;;491698;240;2272;-46
2021/08/08 06:41:43;;;;;;;;;;;18.80;70.30;;;;;;491519;240;2136;-46
2021/08/08 06:43:45;;;;;;;;;;;18.80;70.30;;;;;;491980;240;1104;-46
2021/08/08 06:45:46;;;;;;;;;;;18.80;70.40;;;;;;491553;240;1319;-46
2021/08/08 06:47:47;;;;;;;;;;;18.80;70.50;;;;;;491751;240;1163;-45
2021/08/08 06:49:49;;;;;;;;;;;18.80;70.40;;;;;;491576;240;1035;-46
2021/08/08 06:51:50;;;;;;;;;;;18.80;70.40;;;;;;491463;240;1162;-45
2021/08/08 06:53:51;;;;;;;;;;;18.80;70.40;;;;;;491575;240;1028;-46
2021/08/08 06:55:53;;;;;;;;;;;18.80;70.50;;;;;;491594;240;1401;-46
2021/08/08 06:57:54;;;;;;;;;;;18.80;70.40;;;;;;491546;240;1113;-46
2021/08/08 06:59:55;;;;;;;;;;;18.70;70.50;;;;;;491835;240;1172;-45
2021/08/08 07:01:57;;;;;;;;;;;18.80;70.50;;;;;;491610;240;2153;-46
2021/08/08 07:03:58;;;;;;;;;;;18.80;70.30;;;;;;491591;240;1038;-45
2021/08/08 07:05:59;;;;;;;;;;;18.80;70.40;;;;;;491586;240;1084;-46
2021/08/08 07:08:01;;;;;;;;;;;18.70;70.40;;;;;;491828;240;1092;-46
2021/08/08 07:10:02;;;;;;;;;;;18.80;70.40;;;;;;491918;240;1044;-46
2021/08/08 07:12:03;;;;;;;;;;;18.70;70.50;;;;;;491535;240;1358;-45
2021/08/08 07:14:05;;;;;;;;;;;18.70;70.50;;;;;;491579;240;1041;-45
2021/08/08 07:16:06;;;;;;;;;;;18.70;70.50;;;;;;491561;240;1188;-46
2021/08/08 07:18:07;;;;;;;;;;;18.70;70.50;;;;;;491763;240;1235;-46
2021/08/08 07:20:09;;;;;;;;;;;18.70;70.50;;;;;;492008;240;1050;-45
2021/08/08 07:22:10;;;;;;;;;;;18.70;70.50;;;;;;491560;240;2183;-46
2021/08/08 07:24:11;;;;;;;;;;;18.70;70.50;;;;;;491848;240;1214;-46
2021/08/08 07:26:13;;;;;;;;;;;18.70;70.50;;;;;;491801;240;1357;-46
2021/08/08 07:28:14;;;;;;;;;;;18.70;70.50;;;;;;491532;240;1079;-45
2021/08/08 07:30:15;;;;;;;;;;;18.70;70.60;;;;;;491613;240;1166;-46
2021/08/08 07:32:17;;;;;;;;;;;18.70;70.50;;;;;;491828;240;1143;-45
2021/08/08 07:34:18;;;;;;;;;;;18.70;70.70;;;;;;491598;240;1080;-45
2021/08/08 07:36:19;;;;;;;;;;;18.60;70.60;;;;;;491531;240;1194;-46
2021/08/08 07:38:21;;;;;;;;;;;18.60;70.60;;;;;;491979;240;1233;-45
2021/08/08 07:40:22;;;;;;;;;;;18.70;70.60;;;;;;492064;240;1069;-46
2021/08/08 07:42:23;;;;;;;;;;;18.70;70.60;;;;;;492004;240;2132;-45
2021/08/08 07:44:25;;;;;;;;;;;18.60;70.50;;;;;;492029;240;1063;-46
2021/08/08 07:46:26;;;;;;;;;;;18.70;70.60;;;;;;491502;240;1521;-46
2021/08/08 07:48:27;;;;;;;;;;;18.70;70.50;;;;;;491790;240;1223;-45
2021/08/08 07:50:29;;;;;;;;;;;18.70;70.50;;;;;;491997;240;1092;-45
2021/08/08 07:52:30;;;;;;;;;;;18.70;70.60;;;;;;491536;240;1212;-46
2021/08/08 07:54:31;;;;;;;;;;;18.60;70.50;;;;;;491707;240;1058;-45
2021/08/08 07:56:33;;;;;;;;;;;18.60;70.60;;;;;;491920;240;1219;-45
2021/08/08 07:58:34;;;;;;;;;;;18.70;70.60;;;;;;491650;240;1213;-46
2021/08/08 08:00:35;;;;;;;;;;;18.60;70.50;;;;;;491540;240;1216;-45
2021/08/08 08:02:37;;;;;;;;;;;18.60;70.50;;;;;;491513;240;2145;-45
2021/08/08 08:04:38;;;;;;;;;;;18.70;70.50;;;;;;491822;240;1144;-45
2021/08/08 08:06:39;;;;;;;;;;;18.70;70.50;;;;;;491699;240;1312;-45
2021/08/08 08:08:42;;;;;;;;;;;18.70;70.50;;;;;;491710;240;1103;-45
2021/08/08 08:10:42;;;;;;;;;;;18.70;70.60;;;;;;491553;240;2286;-45
2021/08/08 08:12:44;;;;;;;;;;;18.60;70.50;;;;;;491578;240;1222;-46
2021/08/08 08:14:45;;;;;;;;;;;18.60;70.50;;;;;;491950;240;1051;-45
2021/08/08 08:16:46;;;;;;;;;;;18.70;70.50;;;;;;491472;240;1162;-45
2021/08/08 08:18:48;;;;;;;;;;;18.60;70.50;;;;;;491562;240;1023;-45
2021/08/08 08:20:49;;;;;;;;;;;18.60;70.60;;;;;;492046;240;1076;-46
2021/08/08 08:22:50;;;;;;;;;;;18.60;70.50;;;;;;491950;240;2187;-45
2021/08/08 08:24:51;;;;;;;;;;;18.70;70.50;;;;;;491580;240;1053;-45
2021/08/08 08:26:53;;;;;;;;;;;18.60;70.60;;;;;;491545;240;1077;-46
2021/08/08 08:28:54;;;;;;;;;;;18.60;70.50;;;;;;491569;240;1092;-45
2021/08/08 08:30:55;;;;;;;;;;;18.60;70.60;;;;;;491892;240;1135;-46
2021/08/08 08:33:04;;;;;;;;;;;18.60;70.60;;;;;;491907;240;1068;-46
2021/08/08 08:35:03;;;;;;;;;;;18.60;70.60;;;;;;492018;240;1808;-46
2021/08/08 08:37:03;;;;;;;;;;;18.60;70.50;;;;;;491907;240;2335;-45
2021/08/08 08:39:05;;;;;;;;;;;18.60;70.60;;;;;;491554;240;1106;-45
2021/08/08 08:41:05;;;;;;;;;;;18.60;70.50;;;;;;491657;240;1385;-46
2021/08/08 08:43:07;;;;;;;;;;;18.70;70.50;;;;;;492022;240;2180;-46
2021/08/08 08:45:08;;;;;;;;;;;19.00;69.40;;;;;;491539;240;1147;-46
2021/08/08 08:47:10;;;;;;;;;;;19.30;68.30;;;;;;491451;240;1331;-46
2021/08/08 08:49:11;;;;;;;;;;;19.50;67.20;;;;;;491554;240;1112;-46
2021/08/08 08:51:13;;;;;;;;;;;19.70;66.40;;;;;;491795;240;1195;-46
2021/08/08 08:53:15;;;;;;;;;;;19.90;65.90;;;;;;491617;240;1079;-46
2021/08/08 08:55:16;;;;;;;;;;;20.00;65.50;;;;;;491577;240;1024;-46
2021/08/08 08:57:17;;;;;;;;;;;20.10;65.20;;;;;;491456;240;1208;-46
2021/08/08 08:59:19;;;;;;;;;;;20.20;64.90;;;;;;491674;240;1152;-45
2021/08/08 09:01:20;;;;;;;;;;;20.20;64.70;;;;;;491788;240;1479;-46
2021/08/08 09:03:21;;;;;;;;;;;20.30;64.50;;;;;;491993;240;2160;-46
2021/08/08 09:05:23;;;;;;;;;;;20.30;64.40;;;;;;491581;240;1390;-46
2021/08/08 09:07:24;;;;;;;;;;;20.30;64.20;;;;;;491613;240;1170;-46
2021/08/08 09:09:25;;;;;;;;;;;20.40;64.10;;;;;;491528;240;1149;-46
2021/08/08 09:11:27;;;;;;;;;;;20.40;64.00;;;;;;491651;240;1199;-46
2021/08/08 09:13:28;;;;;;;;;;;20.50;63.90;;;;;;491906;240;1089;-46
2021/08/08 09:15:29;;;;;;;;;;;20.50;63.70;;;;;;491716;240;1254;-46
2021/08/08 09:17:31;;;;;;;;;;;20.60;63.60;;;;;;491540;240;1197;-46
2021/08/08 09:19:32;;;;;;;;;;;20.60;63.50;;;;;;491536;240;1061;-46
2021/08/08 09:21:33;;;;;;;;;;;20.60;63.40;;;;;;491997;240;1448;-46
2021/08/08 09:23:35;;;;;;;;;;;20.60;63.40;;;;;;491996;240;2136;-46
2021/08/08 09:25:37;;;;;;;;;;;20.70;63.40;;;;;;491556;240;1160;-46
2021/08/08 09:27:38;;;;;;;;;;;20.70;63.20;;;;;;491660;240;2195;-46
2021/08/08 09:29:39;;;;;;;;;;;20.70;63.10;;;;;;491788;240;1050;-46
2021/08/08 09:31:40;;;;;;;;;;;20.70;63.00;;;;;;491542;240;1445;-46
2021/08/08 09:33:42;;;;;;;;;;;20.80;63.10;;;;;;491671;240;1070;-46
2021/08/08 09:35:44;;;;;;;;;;;20.80;63.00;;;;;;491964;240;1048;-46
2021/08/08 09:37:45;;;;;;;;;;;20.80;63.00;;;;;;491735;240;2216;-45
2021/08/08 09:39:47;;;;;;;;;;;20.80;62.80;;;;;;491695;240;953;-46
2021/08/08 09:41:47;;;;;;;;;;;20.90;62.80;;;;;;491530;240;2642;-46
2021/08/08 09:43:49;;;;;;;;;;;20.90;62.70;;;;;;491858;240;2129;-46
2021/08/08 09:45:50;;;;;;;;;;;20.90;62.70;;;;;;491663;240;1194;-46
2021/08/08 09:47:51;;;;;;;;;;;20.90;62.60;;;;;;491507;240;1216;-46
2021/08/08 09:49:53;;;;;;;;;;;21.00;62.60;;;;;;491902;240;1278;-46
2021/08/08 09:51:54;;;;;;;;;;;21.00;62.50;;;;;;491551;240;1079;-46
2021/08/08 09:53:56;;;;;;;;;;;21.00;62.40;;;;;;491634;240;1255;-46
2021/08/08 09:55:57;;;;;;;;;;;21.00;62.40;;;;;;491587;240;1057;-45
2021/08/08 09:57:59;;;;;;;;;;;21.10;62.40;;;;;;492015;240;1133;-46
2021/08/08 10:00:00;;;;;;;;;;;21.10;62.40;;;;;;491595;240;1077;-46
2021/08/08 10:02:01;;;;;;;;;;;21.10;62.30;;;;;;491835;240;1119;-46
2021/08/08 10:04:03;;;;;;;;;;;21.10;62.20;;;;;;491658;240;2140;-46
2021/08/08 10:06:07;;;;;;;;;;;21.10;62.30;;;;;;492018;240;1048;-46
2021/08/08 10:08:05;;;;;;;;;;;21.20;62.00;;;;;;491903;240;1323;-46
2021/08/08 10:10:07;;;;;;;;;;;21.20;62.10;;;;;;492019;240;1066;-46
2021/08/08 10:12:08;;;;;;;;;;;21.10;62.10;;;;;;491981;240;1259;-46
2021/08/08 10:14:09;;;;;;;;;;;21.10;62.10;;;;;;491582;240;1066;-46
2021/08/08 10:16:11;;;;;;;;;;;21.20;62.20;;;;;;491537;240;1307;-46
2021/08/08 10:18:12;;;;;;;;;;;21.20;62.00;;;;;;491591;240;1121;-46
2021/08/08 10:20:13;;;;;;;;;;;21.20;62.00;;;;;;491591;240;1091;-46
2021/08/08 10:22:15;;;;;;;;;;;21.30;61.90;;;;;;491635;240;1071;-46
2021/08/08 10:24:16;;;;;;;;;;;21.30;61.80;;;;;;491658;240;2195;-46
2021/08/08 10:26:18;;;;;;;;;;;21.30;61.90;;;;;;491654;240;1038;-46
2021/08/08 10:28:19;;;;;;;;;;;21.30;61.90;;;;;;491753;240;1079;-46
2021/08/08 10:30:20;;;;;;;;;;;21.30;62.00;;;;;;491862;240;1063;-46
2021/08/08 10:32:22;;;;;;;;;;;21.30;61.90;;;;;;491794;240;1278;-46
2021/08/08 10:34:23;;;;;;;;;;;21.30;61.90;;;;;;491765;240;1251;-46
2021/08/08 10:36:24;;;;;;;;;;;21.40;61.90;;;;;;491716;240;1026;-46
2021/08/08 10:38:26;;;;;;;;;;;21.30;61.80;;;;;;491552;240;1043;-46
2021/08/08 10:40:27;;;;;;;;;;;21.30;61.80;;;;;;491774;240;950;-46
2021/08/08 10:42:28;;;;;;;;;;;21.40;61.80;;;;;;491864;240;1040;-46
2021/08/08 10:44:29;;;;;;;;;;;21.40;61.80;;;;;;491594;240;2149;-46
2021/08/08 10:46:31;;;;;;;;;;;21.40;61.80;;;;;;491479;240;1051;-46
2021/08/08 10:48:32;;;;;;;;;;;21.40;61.80;;;;;;491572;240;1166;-46
2021/08/08 10:50:34;;;;;;;;;;;21.40;61.80;;;;;;491507;240;1219;-46
2021/08/08 10:52:35;;;;;;;;;;;21.40;61.80;;;;;;491498;240;1208;-46
2021/08/08 10:54:36;;;;;;;;;;;21.40;61.70;;;;;;491749;240;1381;-46
2021/08/08 10:56:38;;;;;;;;;;;21.40;61.70;;;;;;491440;240;1201;-46
2021/08/08 10:58:39;;;;;;;;;;;21.40;61.70;;;;;;491591;240;1215;-46
2021/08/08 11:00:41;;;;;;;;;;;21.50;61.70;;;;;;491423;240;1559;-46
2021/08/08 11:02:44;;;;;;;;;;;21.50;61.70;;;;;;491455;240;1172;-46
2021/08/08 11:04:44;;;;;;;;;;;21.40;61.70;;;;;;491586;240;2517;-46
2021/08/08 11:06:45;;;;;;;;;;;21.50;61.70;;;;;;491452;240;1273;-46
2021/08/08 11:08:47;;;;;;;;;;;21.50;61.70;;;;;;491615;240;1325;-46
2021/08/08 11:10:48;;;;;;;;;;;21.50;61.60;;;;;;491580;240;1064;-46
2021/08/08 11:12:49;;;;;;;;;;;21.50;61.60;;;;;;491410;240;1206;-46
2021/08/08 11:14:51;;;;;;;;;;;21.60;61.60;;;;;;491964;240;1270;-46
2021/08/08 11:16:52;;;;;;;;;;;21.50;61.60;;;;;;491463;240;1137;-46
2021/08/08 11:18:53;;;;;;;;;;;21.60;61.60;;;;;;491628;240;1242;-45
2021/08/08 11:20:56;;;;;;;;;;;21.60;61.40;;;;;;491969;240;1253;-46
2021/08/08 11:22:57;;;;;;;;;;;21.60;61.40;;;;;;491488;240;1061;-46
2021/08/08 11:24:59;;;;;;;;;;;21.60;61.50;;;;;;491609;240;2125;-46
2021/08/08 11:27:00;;;;;;;;;;;21.60;61.50;;;;;;491433;240;1046;-46
2021/08/08 11:29:01;;;;;;;;;;;21.60;61.50;;;;;;491520;240;1114;-46
2021/08/08 11:31:03;;;;;;;;;;;21.60;61.30;;;;;;491537;240;1246;-46
2021/08/08 11:33:04;;;;;;;;;;;21.60;61.30;;;;;;491702;240;1251;-46
2021/08/08 11:35:05;;;;;;;;;;;21.60;61.40;;;;;;491930;240;1124;-46
2021/08/08 11:37:07;;;;;;;;;;;21.60;61.50;;;;;;491559;240;1168;-46
2021/08/08 11:39:08;;;;;;;;;;;21.60;61.50;;;;;;491557;240;1099;-46
2021/08/08 11:41:09;;;;;;;;;;;21.60;61.50;;;;;;491521;240;1053;-46
2021/08/08 11:43:11;;;;;;;;;;;21.70;61.50;;;;;;491694;240;1164;-46
2021/08/08 11:45:12;;;;;;;;;;;21.70;62.00;;;;;;491540;240;1047;-46
2021/08/08 11:47:13;;;;;;;;;;;21.70;62.40;;;;;;491727;240;1222;-46
2021/08/08 11:49:15;;;;;;;;;;;21.40;62.90;;;;;;491461;240;1193;-46
2021/08/08 11:51:16;;;;;;;;;;;21.10;64.20;;;;;;491662;240;1194;-46
2021/08/08 11:53:17;;;;;;;;;;;20.70;65.50;;;;;;491792;240;1052;-46
2021/08/08 11:55:19;;;;;;;;;;;20.50;66.40;;;;;;491813;240;1082;-45
2021/08/08 11:57:20;;;;;;;;;;;20.20;67.00;;;;;;491434;240;1121;-46